EBBR/BRU METAR and TAF weather

Enter ICAO airport designator
Station Type Date Time Source
EBBR METAR 2019/03/21 03:20 UTC NOAA

EBBR 210320Z 22004KT CAVOK 05/04 Q1034 TEMPO 3500 BR BKN005


Station Type Date Time Source
EBBR Decoded METAR 2019/03/21 03:20 UTC NOAA

Bruxelles National, Belgium (EBBR) 50-54N 004-32E 58M
Mar 20, 2019 - 11:20 PM EDT / 2019.03.21 0320 UTC
Wind: from the SW (220 degrees) at 5 MPH (4 KT):0
Visibility: greater than 7 mile(s):0
Temperature: 41 F (5 C)
Dew Point: 39 F (4 C)
Relative Humidity: 93%
Pressure (altimeter): 30.53 in. Hg (1034 hPa)
ob: EBBR 210320Z 22004KT CAVOK 05/04 Q1034 TEMPO 3500 BR BKN005
cycle: 3

Station Type Date Time Source
EBBR TAF 2019/03/20 18:27 UTC NOAA

TAF TAF EBBR 201700Z 2018/2124 23003KT 9999 SCT035 PROB30
TEMPO 2105/2109 3500 BR BKN005

Example: see airport list